Wasilla, Alaska
Current Conditions -  °F | °C
As of 9:56 PM on Saturday 20 Dec 2014 (Local Time) from PAWS Reporting Station
Scattered Clouds Scattered Clouds  
Wind Chill: -8°   Ceiling: Unl
Heat Index: -8°   Visibility: 10mi
Dew Point: -13°   Wind: 0mph
Humidity: 68%   Direction: NA
Pressure: 28.89"   Gusts: NA
Location:  61.58°N, 149.45°W
Report Text: PAWS 210656Z AUTO 00000KT 10SM SCT120 M08/M13 A2889 RMK AO1
Loading
Personal Weather Stations






























Interactive Weather Map New forecast layout! Learn more

10-Day Weather Forecast

Advertisements
Track Severe Weather on mobile